sensor_id;sensor_type;location;lat;lon;timestamp;temperature;humidity
52575;DHT22;38468;48.114;-1.684;2022-11-15T00:00:55;12.30;71.40
52575;DHT22;38468;48.114;-1.684;2022-11-15T00:02:58;12.40;71.30
52575;DHT22;38468;48.114;-1.684;2022-11-15T00:04:59;12.30;71.80
52575;DHT22;38468;48.114;-1.684;2022-11-15T00:07:00;12.30;71.50
52575;DHT22;38468;48.114;-1.684;2022-11-15T00:09:01;12.30;71.40
52575;DHT22;38468;48.114;-1.684;2022-11-15T00:11:02;12.30;71.50
52575;DHT22;38468;48.114;-1.684;2022-11-15T00:13:11;12.30;71.60
52575;DHT22;38468;48.114;-1.684;2022-11-15T00:15:12;12.30;71.60
52575;DHT22;38468;48.114;-1.684;2022-11-15T00:17:13;12.30;71.80
52575;DHT22;38468;48.114;-1.684;2022-11-15T00:19:13;12.30;71.90
52575;DHT22;38468;48.114;-1.684;2022-11-15T00:21:15;12.30;71.70
52575;DHT22;38468;48.114;-1.684;2022-11-15T00:23:15;12.30;71.70
52575;DHT22;38468;48.114;-1.684;2022-11-15T00:25:16;12.30;71.90
52575;DHT22;38468;48.114;-1.684;2022-11-15T00:27:17;12.30;71.90
52575;DHT22;38468;48.114;-1.684;2022-11-15T00:29:18;12.30;71.60
52575;DHT22;38468;48.114;-1.684;2022-11-15T00:31:18;12.30;71.90
52575;DHT22;38468;48.114;-1.684;2022-11-15T00:33:19;12.30;71.70
52575;DHT22;38468;48.114;-1.684;2022-11-15T00:35:20;12.40;71.80
52575;DHT22;38468;48.114;-1.684;2022-11-15T00:37:21;12.40;72.10
52575;DHT22;38468;48.114;-1.684;2022-11-15T00:39:22;12.40;71.90
52575;DHT22;38468;48.114;-1.684;2022-11-15T00:41:22;12.40;72.00
52575;DHT22;38468;48.114;-1.684;2022-11-15T00:43:23;12.40;71.90
52575;DHT22;38468;48.114;-1.684;2022-11-15T00:45:24;12.40;71.90
52575;DHT22;38468;48.114;-1.684;2022-11-15T00:47:25;12.40;72.10
52575;DHT22;38468;48.114;-1.684;2022-11-15T00:49:26;12.40;72.00
52575;DHT22;38468;48.114;-1.684;2022-11-15T00:51:26;12.50;72.30
52575;DHT22;38468;48.114;-1.684;2022-11-15T00:53:27;12.40;72.20
52575;DHT22;38468;48.114;-1.684;2022-11-15T00:55:28;12.50;72.10
52575;DHT22;38468;48.114;-1.684;2022-11-15T00:57:29;12.50;72.10
52575;DHT22;38468;48.114;-1.684;2022-11-15T00:59:29;12.50;72.20
52575;DHT22;38468;48.114;-1.684;2022-11-15T01:01:30;12.60;72.20
52575;DHT22;38468;48.114;-1.684;2022-11-15T01:03:33;12.60;72.30
52575;DHT22;38468;48.114;-1.684;2022-11-15T01:05:36;12.60;72.50
52575;DHT22;38468;48.114;-1.684;2022-11-15T01:07:37;12.60;72.50
52575;DHT22;38468;48.114;-1.684;2022-11-15T01:09:37;12.60;72.50
52575;DHT22;38468;48.114;-1.684;2022-11-15T01:11:38;12.70;72.50
52575;DHT22;38468;48.114;-1.684;2022-11-15T01:13:39;12.70;72.40
52575;DHT22;38468;48.114;-1.684;2022-11-15T01:15:40;12.70;72.60
52575;DHT22;38468;48.114;-1.684;2022-11-15T01:17:41;12.70;72.60
52575;DHT22;38468;48.114;-1.684;2022-11-15T01:19:42;12.70;72.70
52575;DHT22;38468;48.114;-1.684;2022-11-15T01:21:43;12.80;72.60
52575;DHT22;38468;48.114;-1.684;2022-11-15T01:23:44;12.80;72.50
52575;DHT22;38468;48.114;-1.684;2022-11-15T01:25:45;12.80;72.60
52575;DHT22;38468;48.114;-1.684;2022-11-15T01:27:45;12.80;72.60
52575;DHT22;38468;48.114;-1.684;2022-11-15T01:29:46;12.90;72.70
52575;DHT22;38468;48.114;-1.684;2022-11-15T01:31:47;12.90;72.80
52575;DHT22;38468;48.114;-1.684;2022-11-15T01:33:48;12.90;72.70
52575;DHT22;38468;48.114;-1.684;2022-11-15T01:35:49;12.90;72.80
52575;DHT22;38468;48.114;-1.684;2022-11-15T01:37:49;12.90;72.60
52575;DHT22;38468;48.114;-1.684;2022-11-15T01:39:50;12.90;72.70
52575;DHT22;38468;48.114;-1.684;2022-11-15T01:41:51;12.90;72.80
52575;DHT22;38468;48.114;-1.684;2022-11-15T01:43:55;13.00;72.70
52575;DHT22;38468;48.114;-1.684;2022-11-15T01:46:24;13.00;72.70
52575;DHT22;38468;48.114;-1.684;2022-11-15T01:48:27;13.00;72.70
52575;DHT22;38468;48.114;-1.684;2022-11-15T01:50:31;13.00;72.60
52575;DHT22;38468;48.114;-1.684;2022-11-15T01:52:33;13.00;72.60
52575;DHT22;38468;48.114;-1.684;2022-11-15T01:54:35;13.00;72.60
52575;DHT22;38468;48.114;-1.684;2022-11-15T01:56:42;13.00;72.70
52575;DHT22;38468;48.114;-1.684;2022-11-15T01:58:45;13.00;72.80
52575;DHT22;38468;48.114;-1.684;2022-11-15T02:00:46;13.00;72.70
52575;DHT22;38468;48.114;-1.684;2022-11-15T02:02:48;13.00;72.70
52575;DHT22;38468;48.114;-1.684;2022-11-15T02:04:48;13.00;72.80
52575;DHT22;38468;48.114;-1.684;2022-11-15T02:06:49;13.10;72.80
52575;DHT22;38468;48.114;-1.684;2022-11-15T02:08:50;13.10;72.80
52575;DHT22;38468;48.114;-1.684;2022-11-15T02:10:51;13.10;72.80
52575;DHT22;38468;48.114;-1.684;2022-11-15T02:12:54;13.10;72.80
52575;DHT22;38468;48.114;-1.684;2022-11-15T02:14:56;13.20;72.90
52575;DHT22;38468;48.114;-1.684;2022-11-15T02:19:18;13.20;72.90
52575;DHT22;38468;48.114;-1.684;2022-11-15T02:24:39;13.10;73.00
52575;DHT22;38468;48.114;-1.684;2022-11-15T02:26:50;13.10;73.10
52575;DHT22;38468;48.114;-1.684;2022-11-15T02:29:07;13.20;73.00
52575;DHT22;38468;48.114;-1.684;2022-11-15T02:40:17;13.20;73.20
52575;DHT22;38468;48.114;-1.684;2022-11-15T02:42:28;13.20;73.00
52575;DHT22;38468;48.114;-1.684;2022-11-15T02:44:49;13.20;73.30
52575;DHT22;38468;48.114;-1.684;2022-11-15T02:47:03;13.20;73.30
52575;DHT22;38468;48.114;-1.684;2022-11-15T02:49:15;13.20;73.30
52575;DHT22;38468;48.114;-1.684;2022-11-15T02:51:16;13.20;73.20
52575;DHT22;38468;48.114;-1.684;2022-11-15T02:53:17;13.20;73.30
52575;DHT22;38468;48.114;-1.684;2022-11-15T02:55:33;13.20;73.40
52575;DHT22;38468;48.114;-1.684;2022-11-15T02:58:05;13.20;73.40
52575;DHT22;38468;48.114;-1.684;2022-11-15T03:00:12;13.20;73.50
52575;DHT22;38468;48.114;-1.684;2022-11-15T03:02:25;13.20;73.30
52575;DHT22;38468;48.114;-1.684;2022-11-15T03:04:50;13.20;73.40
52575;DHT22;38468;48.114;-1.684;2022-11-15T03:07:46;13.20;73.30
52575;DHT22;38468;48.114;-1.684;2022-11-15T03:09:39;13.20;73.30
52575;DHT22;38468;48.114;-1.684;2022-11-15T03:11:48;13.20;73.40
52575;DHT22;38468;48.114;-1.684;2022-11-15T03:16:09;13.20;73.50
52575;DHT22;38468;48.114;-1.684;2022-11-15T03:18:32;13.20;73.60
52575;DHT22;38468;48.114;-1.684;2022-11-15T03:20:35;13.20;73.50
52575;DHT22;38468;48.114;-1.684;2022-11-15T03:22:38;13.20;73.60
52575;DHT22;38468;48.114;-1.684;2022-11-15T03:24:42;13.20;73.70
52575;DHT22;38468;48.114;-1.684;2022-11-15T03:26:45;13.20;74.10
52575;DHT22;38468;48.114;-1.684;2022-11-15T03:28:59;13.10;73.90
52575;DHT22;38468;48.114;-1.684;2022-11-15T03:31:02;13.20;74.10
52575;DHT22;38468;48.114;-1.684;2022-11-15T03:33:24;13.20;74.10
52575;DHT22;38468;48.114;-1.684;2022-11-15T03:35:27;13.20;74.00
52575;DHT22;38468;48.114;-1.684;2022-11-15T03:39:51;13.20;73.90
52575;DHT22;38468;48.114;-1.684;2022-11-15T03:44:27;13.20;74.10
52575;DHT22;38468;48.114;-1.684;2022-11-15T03:46:42;13.20;74.30
52575;DHT22;38468;48.114;-1.684;2022-11-15T03:49:00;13.20;74.40
52575;DHT22;38468;48.114;-1.684;2022-11-15T03:51:03;13.20;74.30
52575;DHT22;38468;48.114;-1.684;2022-11-15T03:53:04;13.20;74.30
52575;DHT22;38468;48.114;-1.684;2022-11-15T03:55:08;13.20;74.30
52575;DHT22;38468;48.114;-1.684;2022-11-15T03:57:09;13.20;74.30
52575;DHT22;38468;48.114;-1.684;2022-11-15T03:59:09;13.20;74.30
52575;DHT22;38468;48.114;-1.684;2022-11-15T04:01:10;13.30;74.40
52575;DHT22;38468;48.114;-1.684;2022-11-15T04:03:11;13.30;74.60
52575;DHT22;38468;48.114;-1.684;2022-11-15T04:05:11;13.30;74.60
52575;DHT22;38468;48.114;-1.684;2022-11-15T04:07:12;13.20;74.60
52575;DHT22;38468;48.114;-1.684;2022-11-15T04:09:13;13.20;74.70
52575;DHT22;38468;48.114;-1.684;2022-11-15T04:11:13;13.20;74.80
52575;DHT22;38468;48.114;-1.684;2022-11-15T04:13:14;13.20;74.70
52575;DHT22;38468;48.114;-1.684;2022-11-15T04:15:20;13.20;74.80
52575;DHT22;38468;48.114;-1.684;2022-11-15T04:17:21;13.20;75.00
52575;DHT22;38468;48.114;-1.684;2022-11-15T04:19:22;13.20;74.90
52575;DHT22;38468;48.114;-1.684;2022-11-15T04:21:41;13.20;75.00
52575;DHT22;38468;48.114;-1.684;2022-11-15T04:24:00;13.20;75.10
52575;DHT22;38468;48.114;-1.684;2022-11-15T04:26:16;13.20;75.00
52575;DHT22;38468;48.114;-1.684;2022-11-15T04:28:17;13.20;75.30
52575;DHT22;38468;48.114;-1.684;2022-11-15T04:30:18;13.20;75.30
52575;DHT22;38468;48.114;-1.684;2022-11-15T04:32:19;13.10;75.50
52575;DHT22;38468;48.114;-1.684;2022-11-15T04:34:19;13.20;75.40
52575;DHT22;38468;48.114;-1.684;2022-11-15T04:36:20;13.20;75.40
52575;DHT22;38468;48.114;-1.684;2022-11-15T04:38:39;13.20;75.60
52575;DHT22;38468;48.114;-1.684;2022-11-15T04:40:40;13.20;75.60
52575;DHT22;38468;48.114;-1.684;2022-11-15T04:42:41;13.20;75.60
52575;DHT22;38468;48.114;-1.684;2022-11-15T04:44:45;13.30;75.80
52575;DHT22;38468;48.114;-1.684;2022-11-15T04:46:46;13.20;76.00
52575;DHT22;38468;48.114;-1.684;2022-11-15T04:48:46;13.20;76.00
52575;DHT22;38468;48.114;-1.684;2022-11-15T04:50:50;13.20;76.00
52575;DHT22;38468;48.114;-1.684;2022-11-15T04:52:53;13.20;76.00
52575;DHT22;38468;48.114;-1.684;2022-11-15T04:54:53;13.20;76.60
52575;DHT22;38468;48.114;-1.684;2022-11-15T04:56:54;13.20;76.50
52575;DHT22;38468;48.114;-1.684;2022-11-15T04:58:55;13.20;76.60
52575;DHT22;38468;48.114;-1.684;2022-11-15T05:00:55;13.20;76.50
52575;DHT22;38468;48.114;-1.684;2022-11-15T05:02:56;13.20;76.90
52575;DHT22;38468;48.114;-1.684;2022-11-15T05:05:16;13.10;76.80
52575;DHT22;38468;48.114;-1.684;2022-11-15T05:07:16;13.10;77.10
52575;DHT22;38468;48.114;-1.684;2022-11-15T05:09:18;13.10;77.60
52575;DHT22;38468;48.114;-1.684;2022-11-15T05:11:19;13.10;77.40
52575;DHT22;38468;48.114;-1.684;2022-11-15T05:13:20;13.10;77.40
52575;DHT22;38468;48.114;-1.684;2022-11-15T05:15:21;13.10;77.30
52575;DHT22;38468;48.114;-1.684;2022-11-15T05:17:22;13.10;77.10
52575;DHT22;38468;48.114;-1.684;2022-11-15T05:19:23;13.10;77.50
52575;DHT22;38468;48.114;-1.684;2022-11-15T05:21:24;13.10;77.80
52575;DHT22;38468;48.114;-1.684;2022-11-15T05:23:24;13.10;77.80
52575;DHT22;38468;48.114;-1.684;2022-11-15T05:25:25;13.10;77.80
52575;DHT22;38468;48.114;-1.684;2022-11-15T05:27:26;13.00;77.90
52575;DHT22;38468;48.114;-1.684;2022-11-15T05:29:26;13.00;77.90
52575;DHT22;38468;48.114;-1.684;2022-11-15T05:31:27;13.00;78.20
52575;DHT22;38468;48.114;-1.684;2022-11-15T05:33:28;13.00;78.10
52575;DHT22;38468;48.114;-1.684;2022-11-15T05:35:39;13.10;78.00
52575;DHT22;38468;48.114;-1.684;2022-11-15T05:37:41;13.10;78.30
52575;DHT22;38468;48.114;-1.684;2022-11-15T05:39:42;13.00;78.50
52575;DHT22;38468;48.114;-1.684;2022-11-15T05:41:46;13.10;78.50
52575;DHT22;38468;48.114;-1.684;2022-11-15T05:43:49;13.00;78.80
52575;DHT22;38468;48.114;-1.684;2022-11-15T05:45:50;13.00;78.60
52575;DHT22;38468;48.114;-1.684;2022-11-15T05:47:52;13.00;78.80
52575;DHT22;38468;48.114;-1.684;2022-11-15T05:49:53;13.00;78.60
52575;DHT22;38468;48.114;-1.684;2022-11-15T05:51:54;13.00;78.80
52575;DHT22;38468;48.114;-1.684;2022-11-15T05:53:56;13.00;79.30
52575;DHT22;38468;48.114;-1.684;2022-11-15T05:55:58;13.00;79.20
52575;DHT22;38468;48.114;-1.684;2022-11-15T05:58:00;13.00;79.00
52575;DHT22;38468;48.114;-1.684;2022-11-15T06:00:02;13.00;79.40
52575;DHT22;38468;48.114;-1.684;2022-11-15T06:02:03;13.00;79.50
52575;DHT22;38468;48.114;-1.684;2022-11-15T06:04:04;13.00;79.70
52575;DHT22;38468;48.114;-1.684;2022-11-15T06:06:04;13.00;79.40
52575;DHT22;38468;48.114;-1.684;2022-11-15T06:08:05;13.00;79.40
52575;DHT22;38468;48.114;-1.684;2022-11-15T06:10:06;13.00;79.70
52575;DHT22;38468;48.114;-1.684;2022-11-15T06:12:07;13.00;79.70
52575;DHT22;38468;48.114;-1.684;2022-11-15T06:14:08;13.00;79.50
52575;DHT22;38468;48.114;-1.684;2022-11-15T06:16:08;13.00;79.60
52575;DHT22;38468;48.114;-1.684;2022-11-15T06:18:09;13.00;80.10
52575;DHT22;38468;48.114;-1.684;2022-11-15T06:20:10;13.00;79.80
52575;DHT22;38468;48.114;-1.684;2022-11-15T06:22:11;13.00;80.00
52575;DHT22;38468;48.114;-1.684;2022-11-15T06:24:12;13.00;80.00
52575;DHT22;38468;48.114;-1.684;2022-11-15T06:26:12;13.00;79.80
52575;DHT22;38468;48.114;-1.684;2022-11-15T06:28:13;13.10;80.10
52575;DHT22;38468;48.114;-1.684;2022-11-15T06:30:14;13.00;80.20
52575;DHT22;38468;48.114;-1.684;2022-11-15T06:32:14;13.00;80.20
52575;DHT22;38468;48.114;-1.684;2022-11-15T06:34:15;13.10;80.40
52575;DHT22;38468;48.114;-1.684;2022-11-15T06:36:16;13.00;80.00
52575;DHT22;38468;48.114;-1.684;2022-11-15T06:38:17;13.00;79.90
52575;DHT22;38468;48.114;-1.684;2022-11-15T06:40:18;13.00;80.10
52575;DHT22;38468;48.114;-1.684;2022-11-15T06:42:18;13.00;80.60
52575;DHT22;38468;48.114;-1.684;2022-11-15T06:44:19;13.00;80.80
52575;DHT22;38468;48.114;-1.684;2022-11-15T06:46:19;13.10;80.60
52575;DHT22;38468;48.114;-1.684;2022-11-15T06:48:20;13.10;81.30
52575;DHT22;38468;48.114;-1.684;2022-11-15T06:50:21;13.00;80.90
52575;DHT22;38468;48.114;-1.684;2022-11-15T06:52:21;13.00;81.30
52575;DHT22;38468;48.114;-1.684;2022-11-15T06:54:22;13.00;81.00
52575;DHT22;38468;48.114;-1.684;2022-11-15T06:56:23;13.10;81.20
52575;DHT22;38468;48.114;-1.684;2022-11-15T06:58:23;13.00;81.30
52575;DHT22;38468;48.114;-1.684;2022-11-15T07:00:24;13.10;81.00
52575;DHT22;38468;48.114;-1.684;2022-11-15T07:02:25;13.10;81.10
52575;DHT22;38468;48.114;-1.684;2022-11-15T07:04:25;13.10;81.20
52575;DHT22;38468;48.114;-1.684;2022-11-15T07:06:26;13.20;81.10
52575;DHT22;38468;48.114;-1.684;2022-11-15T07:08:28;13.20;81.20
52575;DHT22;38468;48.114;-1.684;2022-11-15T07:10:29;13.20;81.50
52575;DHT22;38468;48.114;-1.684;2022-11-15T07:12:30;13.30;81.30
52575;DHT22;38468;48.114;-1.684;2022-11-15T07:14:31;13.30;81.10
52575;DHT22;38468;48.114;-1.684;2022-11-15T07:16:31;13.30;81.10
52575;DHT22;38468;48.114;-1.684;2022-11-15T07:18:36;13.30;81.10
52575;DHT22;38468;48.114;-1.684;2022-11-15T07:20:37;13.40;81.80
52575;DHT22;38468;48.114;-1.684;2022-11-15T07:22:37;13.40;81.60
52575;DHT22;38468;48.114;-1.684;2022-11-15T07:24:38;13.40;81.50
52575;DHT22;38468;48.114;-1.684;2022-11-15T07:26:39;13.40;81.60
52575;DHT22;38468;48.114;-1.684;2022-11-15T07:28:39;13.40;81.70
52575;DHT22;38468;48.114;-1.684;2022-11-15T07:30:40;13.50;82.10
52575;DHT22;38468;48.114;-1.684;2022-11-15T07:32:41;13.50;81.90
52575;DHT22;38468;48.114;-1.684;2022-11-15T07:34:41;13.50;81.90
52575;DHT22;38468;48.114;-1.684;2022-11-15T07:36:42;13.50;81.80
52575;DHT22;38468;48.114;-1.684;2022-11-15T07:38:42;13.50;81.90
52575;DHT22;38468;48.114;-1.684;2022-11-15T07:40:44;13.50;82.70
52575;DHT22;38468;48.114;-1.684;2022-11-15T07:42:44;13.50;82.10
52575;DHT22;38468;48.114;-1.684;2022-11-15T07:44:54;13.50;81.80
52575;DHT22;38468;48.114;-1.684;2022-11-15T07:46:55;13.60;82.30
52575;DHT22;38468;48.114;-1.684;2022-11-15T07:48:55;13.60;82.10
52575;DHT22;38468;48.114;-1.684;2022-11-15T07:50:56;13.60;82.30
52575;DHT22;38468;48.114;-1.684;2022-11-15T07:52:58;13.60;82.50
52575;DHT22;38468;48.114;-1.684;2022-11-15T07:54:59;13.60;82.30
52575;DHT22;38468;48.114;-1.684;2022-11-15T07:57:00;13.60;82.30
52575;DHT22;38468;48.114;-1.684;2022-11-15T07:59:00;13.60;82.30
52575;DHT22;38468;48.114;-1.684;2022-11-15T08:01:06;13.60;82.40
52575;DHT22;38468;48.114;-1.684;2022-11-15T08:03:11;13.60;82.30
52575;DHT22;38468;48.114;-1.684;2022-11-15T08:05:12;13.60;82.60
52575;DHT22;38468;48.114;-1.684;2022-11-15T08:07:13;13.60;82.60
52575;DHT22;38468;48.114;-1.684;2022-11-15T08:09:14;13.60;82.50
52575;DHT22;38468;48.114;-1.684;2022-11-15T08:11:14;13.60;82.70
52575;DHT22;38468;48.114;-1.684;2022-11-15T08:13:15;13.60;82.60
52575;DHT22;38468;48.114;-1.684;2022-11-15T08:15:16;13.60;82.60
52575;DHT22;38468;48.114;-1.684;2022-11-15T08:17:16;13.60;82.70
52575;DHT22;38468;48.114;-1.684;2022-11-15T08:19:17;13.60;82.70
52575;DHT22;38468;48.114;-1.684;2022-11-15T08:21:20;13.60;82.70
52575;DHT22;38468;48.114;-1.684;2022-11-15T08:23:21;13.60;82.70
52575;DHT22;38468;48.114;-1.684;2022-11-15T08:25:21;13.70;83.00
52575;DHT22;38468;48.114;-1.684;2022-11-15T08:27:22;13.70;83.20
52575;DHT22;38468;48.114;-1.684;2022-11-15T08:29:23;13.70;83.50
52575;DHT22;38468;48.114;-1.684;2022-11-15T08:31:23;13.70;83.70
52575;DHT22;38468;48.114;-1.684;2022-11-15T08:33:24;13.70;83.30
52575;DHT22;38468;48.114;-1.684;2022-11-15T08:35:24;13.70;83.40
52575;DHT22;38468;48.114;-1.684;2022-11-15T08:37:25;13.70;83.40
52575;DHT22;38468;48.114;-1.684;2022-11-15T08:39:26;13.70;83.40
52575;DHT22;38468;48.114;-1.684;2022-11-15T08:41:30;13.70;83.40
52575;DHT22;38468;48.114;-1.684;2022-11-15T08:43:31;13.80;83.50
52575;DHT22;38468;48.114;-1.684;2022-11-15T08:45:34;13.80;83.80
52575;DHT22;38468;48.114;-1.684;2022-11-15T08:47:35;13.90;83.60
52575;DHT22;38468;48.114;-1.684;2022-11-15T08:49:36;13.90;83.50
52575;DHT22;38468;48.114;-1.684;2022-11-15T08:51:36;13.90;83.60
52575;DHT22;38468;48.114;-1.684;2022-11-15T08:53:37;13.90;83.90
52575;DHT22;38468;48.114;-1.684;2022-11-15T08:55:39;13.90;83.60
52575;DHT22;38468;48.114;-1.684;2022-11-15T08:57:40;13.90;83.90
52575;DHT22;38468;48.114;-1.684;2022-11-15T08:59:40;13.90;83.80
52575;DHT22;38468;48.114;-1.684;2022-11-15T09:01:41;13.90;83.60
52575;DHT22;38468;48.114;-1.684;2022-11-15T09:03:42;13.90;83.70
52575;DHT22;38468;48.114;-1.684;2022-11-15T09:05:43;13.90;83.60
52575;DHT22;38468;48.114;-1.684;2022-11-15T09:07:43;13.90;83.70
52575;DHT22;38468;48.114;-1.684;2022-11-15T09:09:44;13.90;83.90
52575;DHT22;38468;48.114;-1.684;2022-11-15T09:11:45;13.90;83.60
52575;DHT22;38468;48.114;-1.684;2022-11-15T09:13:45;13.90;83.80
52575;DHT22;38468;48.114;-1.684;2022-11-15T09:15:46;13.90;83.60
52575;DHT22;38468;48.114;-1.684;2022-11-15T09:17:47;13.90;83.60
52575;DHT22;38468;48.114;-1.684;2022-11-15T09:19:47;14.00;83.80
52575;DHT22;38468;48.114;-1.684;2022-11-15T09:21:48;13.90;83.80
52575;DHT22;38468;48.114;-1.684;2022-11-15T09:23:52;14.00;83.80
52575;DHT22;38468;48.114;-1.684;2022-11-15T09:25:58;14.00;83.70
52575;DHT22;38468;48.114;-1.684;2022-11-15T09:28:00;14.00;83.60
52575;DHT22;38468;48.114;-1.684;2022-11-15T09:30:01;14.00;83.60
52575;DHT22;38468;48.114;-1.684;2022-11-15T09:32:02;14.00;83.70
52575;DHT22;38468;48.114;-1.684;2022-11-15T09:34:02;14.00;83.70
52575;DHT22;38468;48.114;-1.684;2022-11-15T09:36:07;14.10;83.80
52575;DHT22;38468;48.114;-1.684;2022-11-15T09:38:09;14.10;83.60
52575;DHT22;38468;48.114;-1.684;2022-11-15T09:40:12;14.10;83.50
52575;DHT22;38468;48.114;-1.684;2022-11-15T09:49:01;14.10;83.60
52575;DHT22;38468;48.114;-1.684;2022-11-15T09:51:02;14.10;83.80
52575;DHT22;38468;48.114;-1.684;2022-11-15T09:53:04;14.10;83.60
52575;DHT22;38468;48.114;-1.684;2022-11-15T09:55:05;14.10;83.50
52575;DHT22;38468;48.114;-1.684;2022-11-15T09:57:17;14.10;83.50
52575;DHT22;38468;48.114;-1.684;2022-11-15T10:03:35;14.10;83.70
52575;DHT22;38468;48.114;-1.684;2022-11-15T10:05:45;14.10;83.70
52575;DHT22;38468;48.114;-1.684;2022-11-15T10:10:04;14.10;83.70
52575;DHT22;38468;48.114;-1.684;2022-11-15T10:12:09;14.10;83.80
52575;DHT22;38468;48.114;-1.684;2022-11-15T10:14:23;14.10;83.90
52575;DHT22;38468;48.114;-1.684;2022-11-15T10:16:50;14.10;83.80
52575;DHT22;38468;48.114;-1.684;2022-11-15T10:21:12;14.20;83.90
52575;DHT22;38468;48.114;-1.684;2022-11-15T10:23:18;14.20;84.00
52575;DHT22;38468;48.114;-1.684;2022-11-15T10:25:23;14.20;84.00
52575;DHT22;38468;48.114;-1.684;2022-11-15T10:27:24;14.20;84.00
52575;DHT22;38468;48.114;-1.684;2022-11-15T10:29:25;14.20;84.20
52575;DHT22;38468;48.114;-1.684;2022-11-15T10:31:28;14.20;84.10
52575;DHT22;38468;48.114;-1.684;2022-11-15T10:35:30;14.20;84.10
52575;DHT22;38468;48.114;-1.684;2022-11-15T10:37:31;14.20;84.20
52575;DHT22;38468;48.114;-1.684;2022-11-15T10:39:32;14.30;84.10
52575;DHT22;38468;48.114;-1.684;2022-11-15T10:41:39;14.40;84.20
52575;DHT22;38468;48.114;-1.684;2022-11-15T10:43:40;14.40;84.20
52575;DHT22;38468;48.114;-1.684;2022-11-15T10:45:41;14.40;84.20
52575;DHT22;38468;48.114;-1.684;2022-11-15T10:47:42;14.40;84.30
52575;DHT22;38468;48.114;-1.684;2022-11-15T10:49:57;14.50;84.20
52575;DHT22;38468;48.114;-1.684;2022-11-15T10:54:14;14.60;84.10
52575;DHT22;38468;48.114;-1.684;2022-11-15T10:56:21;14.60;84.10
52575;DHT22;38468;48.114;-1.684;2022-11-15T10:58:29;14.70;84.30
52575;DHT22;38468;48.114;-1.684;2022-11-15T11:00:40;14.70;84.10
52575;DHT22;38468;48.114;-1.684;2022-11-15T11:02:47;14.90;84.10
52575;DHT22;38468;48.114;-1.684;2022-11-15T11:04:57;15.00;84.00
52575;DHT22;38468;48.114;-1.684;2022-11-15T11:06:59;15.10;84.00
52575;DHT22;38468;48.114;-1.684;2022-11-15T11:09:04;15.20;83.90
52575;DHT22;38468;48.114;-1.684;2022-11-15T11:11:06;15.20;83.70
52575;DHT22;38468;48.114;-1.684;2022-11-15T11:13:37;15.40;83.60
52575;DHT22;38468;48.114;-1.684;2022-11-15T11:15:39;15.50;83.40
52575;DHT22;38468;48.114;-1.684;2022-11-15T11:20:29;15.70;83.10
52575;DHT22;38468;48.114;-1.684;2022-11-15T11:30:08;15.80;82.30
52575;DHT22;38468;48.114;-1.684;2022-11-15T11:35:17;15.90;82.50
52575;DHT22;38468;48.114;-1.684;2022-11-15T11:37:36;15.90;82.60
52575;DHT22;38468;48.114;-1.684;2022-11-15T11:40:05;15.90;82.50
52575;DHT22;38468;48.114;-1.684;2022-11-15T11:47:18;15.70;82.20
52575;DHT22;38468;48.114;-1.684;2022-11-15T11:56:28;15.40;82.00
52575;DHT22;38468;48.114;-1.684;2022-11-15T11:58:43;15.40;81.90
52575;DHT22;38468;48.114;-1.684;2022-11-15T12:00:51;15.40;82.00
52575;DHT22;38468;48.114;-1.684;2022-11-15T12:05:22;15.50;81.60
52575;DHT22;38468;48.114;-1.684;2022-11-15T12:07:31;15.70;81.70
52575;DHT22;38468;48.114;-1.684;2022-11-15T12:09:42;16.70;81.10
52575;DHT22;38468;48.114;-1.684;2022-11-15T12:11:52;17.90;79.90
52575;DHT22;38468;48.114;-1.684;2022-11-15T12:13:59;19.30;79.00
52575;DHT22;38468;48.114;-1.684;2022-11-15T12:16:21;20.10;75.40
52575;DHT22;38468;48.114;-1.684;2022-11-15T12:18:22;20.70;72.70
52575;DHT22;38468;48.114;-1.684;2022-11-15T12:20:26;21.20;71.70
52575;DHT22;38468;48.114;-1.684;2022-11-15T12:22:41;21.90;72.40
52575;DHT22;38468;48.114;-1.684;2022-11-15T12:24:51;22.40;70.20
52575;DHT22;38468;48.114;-1.684;2022-11-15T12:29:37;23.30;67.90
52575;DHT22;38468;48.114;-1.684;2022-11-15T12:31:41;23.40;66.80
52575;DHT22;38468;48.114;-1.684;2022-11-15T12:33:46;23.80;65.10
52575;DHT22;38468;48.114;-1.684;2022-11-15T12:35:58;23.90;64.10
52575;DHT22;38468;48.114;-1.684;2022-11-15T12:37:59;23.60;63.00
52575;DHT22;38468;48.114;-1.684;2022-11-15T12:44:11;22.10;63.50
52575;DHT22;38468;48.114;-1.684;2022-11-15T12:55:32;22.00;62.00
52575;DHT22;38468;48.114;-1.684;2022-11-15T12:57:35;21.30;59.50
52575;DHT22;38468;48.114;-1.684;2022-11-15T12:59:59;20.30;60.40
52575;DHT22;38468;48.114;-1.684;2022-11-15T13:06:43;18.30;64.80
52575;DHT22;38468;48.114;-1.684;2022-11-15T13:08:46;17.90;64.30
52575;DHT22;38468;48.114;-1.684;2022-11-15T13:10:48;17.60;65.70
52575;DHT22;38468;48.114;-1.684;2022-11-15T13:12:50;17.40;66.20
52575;DHT22;38468;48.114;-1.684;2022-11-15T13:17:23;17.20;66.90
52575;DHT22;38468;48.114;-1.684;2022-11-15T13:19:24;17.10;66.40
52575;DHT22;38468;48.114;-1.684;2022-11-15T13:21:25;17.00;66.70
52575;DHT22;38468;48.114;-1.684;2022-11-15T13:23:45;16.90;66.90
52575;DHT22;38468;48.114;-1.684;2022-11-15T13:30:22;17.00;67.30
52575;DHT22;38468;48.114;-1.684;2022-11-15T13:32:23;17.00;67.00
52575;DHT22;38468;48.114;-1.684;2022-11-15T13:34:30;17.10;66.50
52575;DHT22;38468;48.114;-1.684;2022-11-15T13:36:36;17.10;67.30
52575;DHT22;38468;48.114;-1.684;2022-11-15T13:38:38;17.00;67.10
52575;DHT22;38468;48.114;-1.684;2022-11-15T13:40:39;17.00;67.00
52575;DHT22;38468;48.114;-1.684;2022-11-15T13:42:39;16.80;67.30
52575;DHT22;38468;48.114;-1.684;2022-11-15T13:45:01;16.60;67.80
52575;DHT22;38468;48.114;-1.684;2022-11-15T13:49:08;16.40;69.40
52575;DHT22;38468;48.114;-1.684;2022-11-15T13:51:22;16.30;69.20
52575;DHT22;38468;48.114;-1.684;2022-11-15T13:53:25;16.30;69.90
52575;DHT22;38468;48.114;-1.684;2022-11-15T13:55:26;16.50;70.30
52575;DHT22;38468;48.114;-1.684;2022-11-15T13:57:43;16.70;70.00
52575;DHT22;38468;48.114;-1.684;2022-11-15T14:00:05;16.60;70.40
52575;DHT22;38468;48.114;-1.684;2022-11-15T14:02:15;16.60;70.70
52575;DHT22;38468;48.114;-1.684;2022-11-15T14:04:20;17.10;71.30
52575;DHT22;38468;48.114;-1.684;2022-11-15T14:06:24;18.30;70.20
52575;DHT22;38468;48.114;-1.684;2022-11-15T14:08:25;19.60;68.30
52575;DHT22;38468;48.114;-1.684;2022-11-15T14:10:35;19.90;65.70
52575;DHT22;38468;48.114;-1.684;2022-11-15T14:12:36;19.70;66.10
52575;DHT22;38468;48.114;-1.684;2022-11-15T14:14:45;19.80;65.10
52575;DHT22;38468;48.114;-1.684;2022-11-15T14:16:49;19.70;63.90
52575;DHT22;38468;48.114;-1.684;2022-11-15T14:18:52;19.70;64.20
52575;DHT22;38468;48.114;-1.684;2022-11-15T14:21:06;20.10;62.20
52575;DHT22;38468;48.114;-1.684;2022-11-15T14:23:27;20.90;60.50
52575;DHT22;38468;48.114;-1.684;2022-11-15T14:25:29;21.50;59.90
52575;DHT22;38468;48.114;-1.684;2022-11-15T14:27:31;22.10;58.00
52575;DHT22;38468;48.114;-1.684;2022-11-15T14:29:32;22.40;56.90